sensor_id;sensor_type;location;lat;lon;timestamp;P1;durP1;ratioP1;P2;durP2;ratioP2
48805;SDS011;34625;47.176;27.548;2023-08-31T00:00:54;2.08;;;1.88;;
48805;SDS011;34625;47.176;27.548;2023-08-31T00:03:21;2.10;;;1.90;;
48805;SDS011;34625;47.176;27.548;2023-08-31T00:05:47;2.70;;;2.47;;
48805;SDS011;34625;47.176;27.548;2023-08-31T00:08:14;2.38;;;2.17;;
48805;SDS011;34625;47.176;27.548;2023-08-31T00:10:40;3.05;;;2.58;;
48805;SDS011;34625;47.176;27.548;2023-08-31T00:13:06;2.08;;;1.88;;
48805;SDS011;34625;47.176;27.548;2023-08-31T00:15:33;2.70;;;1.85;;
48805;SDS011;34625;47.176;27.548;2023-08-31T00:18:00;2.28;;;2.08;;
48805;SDS011;34625;47.176;27.548;2023-08-31T00:20:32;3.03;;;2.30;;
48805;SDS011;34625;47.176;27.548;2023-08-31T00:22:59;2.40;;;2.20;;
48805;SDS011;34625;47.176;27.548;2023-08-31T00:25:26;3.17;;;2.10;;
48805;SDS011;34625;47.176;27.548;2023-08-31T00:27:52;4.60;;;2.30;;
48805;SDS011;34625;47.176;27.548;2023-08-31T00:30:19;1.60;;;1.50;;
48805;SDS011;34625;47.176;27.548;2023-08-31T00:32:45;4.88;;;3.40;;
48805;SDS011;34625;47.176;27.548;2023-08-31T00:35:13;2.78;;;1.98;;
48805;SDS011;34625;47.176;27.548;2023-08-31T00:37:39;3.90;;;2.35;;
48805;SDS011;34625;47.176;27.548;2023-08-31T00:40:05;3.65;;;2.50;;
48805;SDS011;34625;47.176;27.548;2023-08-31T00:42:35;2.92;;;1.98;;
48805;SDS011;34625;47.176;27.548;2023-08-31T00:45:02;3.38;;;2.53;;
48805;SDS011;34625;47.176;27.548;2023-08-31T00:47:29;6.47;;;3.92;;
48805;SDS011;34625;47.176;27.548;2023-08-31T00:49:55;3.25;;;1.88;;
48805;SDS011;34625;47.176;27.548;2023-08-31T00:52:21;2.28;;;2.03;;
48805;SDS011;34625;47.176;27.548;2023-08-31T00:54:47;3.63;;;2.00;;
48805;SDS011;34625;47.176;27.548;2023-08-31T00:57:17;2.00;;;1.83;;
48805;SDS011;34625;47.176;27.548;2023-08-31T00:59:43;3.60;;;2.00;;
48805;SDS011;34625;47.176;27.548;2023-08-31T01:10:07;6.60;;;3.35;;
48805;SDS011;34625;47.176;27.548;2023-08-31T01:12:59;4.28;;;3.65;;
48805;SDS011;34625;47.176;27.548;2023-08-31T01:15:30;4.10;;;3.30;;
48805;SDS011;34625;47.176;27.548;2023-08-31T01:17:57;2.70;;;2.30;;
48805;SDS011;34625;47.176;27.548;2023-08-31T01:20:27;2.42;;;1.90;;
48805;SDS011;34625;47.176;27.548;2023-08-31T01:23:07;1.67;;;1.50;;
48805;SDS011;34625;47.176;27.548;2023-08-31T01:25:38;1.85;;;1.75;;
48805;SDS011;34625;47.176;27.548;2023-08-31T01:28:08;3.53;;;2.53;;
48805;SDS011;34625;47.176;27.548;2023-08-31T01:30:36;2.20;;;1.98;;
48805;SDS011;34625;47.176;27.548;2023-08-31T01:33:02;1.80;;;1.70;;
48805;SDS011;34625;47.176;27.548;2023-08-31T01:35:29;1.83;;;1.73;;
48805;SDS011;34625;47.176;27.548;2023-08-31T01:38:01;2.00;;;1.80;;
48805;SDS011;34625;47.176;27.548;2023-08-31T01:43:08;3.72;;;1.83;;
48805;SDS011;34625;47.176;27.548;2023-08-31T01:45:37;4.57;;;2.83;;
48805;SDS011;34625;47.176;27.548;2023-08-31T01:48:04;1.90;;;1.80;;
48805;SDS011;34625;47.176;27.548;2023-08-31T01:50:31;2.95;;;2.53;;
48805;SDS011;34625;47.176;27.548;2023-08-31T01:52:58;2.53;;;1.95;;
48805;SDS011;34625;47.176;27.548;2023-08-31T01:55:25;2.03;;;1.80;;
48805;SDS011;34625;47.176;27.548;2023-08-31T01:57:51;2.45;;;2.13;;
48805;SDS011;34625;47.176;27.548;2023-08-31T02:00:25;2.83;;;1.60;;
48805;SDS011;34625;47.176;27.548;2023-08-31T02:02:51;2.13;;;1.63;;
48805;SDS011;34625;47.176;27.548;2023-08-31T02:05:17;2.60;;;2.13;;
48805;SDS011;34625;47.176;27.548;2023-08-31T02:07:46;2.20;;;2.00;;
48805;SDS011;34625;47.176;27.548;2023-08-31T02:10:12;2.20;;;2.00;;
48805;SDS011;34625;47.176;27.548;2023-08-31T02:12:41;2.20;;;2.00;;
48805;SDS011;34625;47.176;27.548;2023-08-31T02:15:07;2.63;;;1.77;;
48805;SDS011;34625;47.176;27.548;2023-08-31T02:17:33;1.85;;;1.73;;
48805;SDS011;34625;47.176;27.548;2023-08-31T02:20:01;2.90;;;1.75;;
48805;SDS011;34625;47.176;27.548;2023-08-31T02:22:30;1.83;;;1.73;;
48805;SDS011;34625;47.176;27.548;2023-08-31T02:24:58;5.97;;;2.10;;
48805;SDS011;34625;47.176;27.548;2023-08-31T02:27:24;5.05;;;3.63;;
48805;SDS011;34625;47.176;27.548;2023-08-31T02:29:50;5.60;;;3.95;;
48805;SDS011;34625;47.176;27.548;2023-08-31T02:32:16;5.50;;;3.42;;
48805;SDS011;34625;47.176;27.548;2023-08-31T02:34:43;5.78;;;3.95;;
48805;SDS011;34625;47.176;27.548;2023-08-31T02:37:09;3.95;;;3.20;;
48805;SDS011;34625;47.176;27.548;2023-08-31T02:39:35;4.30;;;3.00;;
48805;SDS011;34625;47.176;27.548;2023-08-31T02:42:01;5.95;;;3.47;;
48805;SDS011;34625;47.176;27.548;2023-08-31T02:44:27;8.95;;;4.28;;
48805;SDS011;34625;47.176;27.548;2023-08-31T02:46:53;4.97;;;3.60;;
48805;SDS011;34625;47.176;27.548;2023-08-31T02:49:19;6.93;;;4.25;;
48805;SDS011;34625;47.176;27.548;2023-08-31T02:51:45;3.28;;;2.35;;
48805;SDS011;34625;47.176;27.548;2023-08-31T02:54:12;1.55;;;1.42;;
48805;SDS011;34625;47.176;27.548;2023-08-31T02:56:38;2.17;;;2.00;;
48805;SDS011;34625;47.176;27.548;2023-08-31T02:59:04;4.07;;;3.13;;
48805;SDS011;34625;47.176;27.548;2023-08-31T03:01:30;8.23;;;2.40;;
48805;SDS011;34625;47.176;27.548;2023-08-31T03:03:56;2.00;;;1.80;;
48805;SDS011;34625;47.176;27.548;2023-08-31T03:06:22;2.30;;;1.58;;
48805;SDS011;34625;47.176;27.548;2023-08-31T03:08:48;2.33;;;1.92;;
48805;SDS011;34625;47.176;27.548;2023-08-31T03:11:14;2.50;;;1.88;;
48805;SDS011;34625;47.176;27.548;2023-08-31T03:13:41;2.17;;;1.80;;
48805;SDS011;34625;47.176;27.548;2023-08-31T03:16:07;2.83;;;1.88;;
48805;SDS011;34625;47.176;27.548;2023-08-31T03:18:33;2.53;;;2.05;;
48805;SDS011;34625;47.176;27.548;2023-08-31T03:21:00;1.90;;;1.70;;
48805;SDS011;34625;47.176;27.548;2023-08-31T03:23:26;2.60;;;1.90;;
48805;SDS011;34625;47.176;27.548;2023-08-31T03:25:53;2.38;;;2.15;;
48805;SDS011;34625;47.176;27.548;2023-08-31T03:28:20;2.05;;;1.85;;
48805;SDS011;34625;47.176;27.548;2023-08-31T03:30:46;1.98;;;1.77;;
48805;SDS011;34625;47.176;27.548;2023-08-31T03:33:22;2.60;;;1.50;;
48805;SDS011;34625;47.176;27.548;2023-08-31T03:35:48;2.13;;;1.98;;
48805;SDS011;34625;47.176;27.548;2023-08-31T03:38:14;2.70;;;2.03;;
48805;SDS011;34625;47.176;27.548;2023-08-31T03:40:40;1.83;;;1.73;;
48805;SDS011;34625;47.176;27.548;2023-08-31T03:43:06;2.60;;;1.98;;
48805;SDS011;34625;47.176;27.548;2023-08-31T03:45:32;2.60;;;2.00;;
48805;SDS011;34625;47.176;27.548;2023-08-31T03:47:58;2.63;;;1.80;;
48805;SDS011;34625;47.176;27.548;2023-08-31T03:50:24;1.90;;;1.70;;
48805;SDS011;34625;47.176;27.548;2023-08-31T03:52:50;6.80;;;3.67;;
48805;SDS011;34625;47.176;27.548;2023-08-31T03:55:17;7.65;;;3.53;;
48805;SDS011;34625;47.176;27.548;2023-08-31T03:57:43;3.92;;;2.60;;
48805;SDS011;34625;47.176;27.548;2023-08-31T04:00:17;3.20;;;2.50;;
48805;SDS011;34625;47.176;27.548;2023-08-31T04:02:42;2.50;;;1.67;;
48805;SDS011;34625;47.176;27.548;2023-08-31T04:05:15;2.72;;;2.08;;
48805;SDS011;34625;47.176;27.548;2023-08-31T04:07:42;2.60;;;2.20;;
48805;SDS011;34625;47.176;27.548;2023-08-31T04:10:08;4.88;;;2.47;;
48805;SDS011;34625;47.176;27.548;2023-08-31T04:12:35;4.72;;;3.30;;
48805;SDS011;34625;47.176;27.548;2023-08-31T04:15:01;3.92;;;2.42;;
48805;SDS011;34625;47.176;27.548;2023-08-31T04:17:29;4.55;;;3.55;;
48805;SDS011;34625;47.176;27.548;2023-08-31T04:19:55;3.88;;;3.10;;
48805;SDS011;34625;47.176;27.548;2023-08-31T04:22:21;3.92;;;3.53;;
48805;SDS011;34625;47.176;27.548;2023-08-31T04:24:47;5.57;;;3.17;;
48805;SDS011;34625;47.176;27.548;2023-08-31T04:27:13;11.95;;;3.15;;
48805;SDS011;34625;47.176;27.548;2023-08-31T04:29:39;7.70;;;3.35;;
48805;SDS011;34625;47.176;27.548;2023-08-31T04:32:06;9.55;;;3.75;;
48805;SDS011;34625;47.176;27.548;2023-08-31T04:34:31;4.90;;;3.20;;
48805;SDS011;34625;47.176;27.548;2023-08-31T04:36:57;3.92;;;2.83;;
48805;SDS011;34625;47.176;27.548;2023-08-31T04:39:23;4.78;;;3.00;;
48805;SDS011;34625;47.176;27.548;2023-08-31T04:41:49;8.95;;;2.92;;
48805;SDS011;34625;47.176;27.548;2023-08-31T04:44:15;6.43;;;2.85;;
48805;SDS011;34625;47.176;27.548;2023-08-31T04:46:42;4.45;;;3.88;;
48805;SDS011;34625;47.176;27.548;2023-08-31T04:49:08;10.30;;;3.33;;
48805;SDS011;34625;47.176;27.548;2023-08-31T04:51:35;5.25;;;3.70;;
48805;SDS011;34625;47.176;27.548;2023-08-31T04:54:04;5.32;;;3.47;;
48805;SDS011;34625;47.176;27.548;2023-08-31T04:56:31;6.97;;;3.20;;
48805;SDS011;34625;47.176;27.548;2023-08-31T04:58:58;6.35;;;3.05;;
48805;SDS011;34625;47.176;27.548;2023-08-31T05:01:25;4.13;;;3.67;;
48805;SDS011;34625;47.176;27.548;2023-08-31T05:03:51;9.55;;;4.43;;
48805;SDS011;34625;47.176;27.548;2023-08-31T05:06:17;6.97;;;4.07;;
48805;SDS011;34625;47.176;27.548;2023-08-31T05:08:43;5.72;;;4.18;;
48805;SDS011;34625;47.176;27.548;2023-08-31T05:11:09;7.22;;;4.10;;
48805;SDS011;34625;47.176;27.548;2023-08-31T05:13:35;6.18;;;3.63;;
48805;SDS011;34625;47.176;27.548;2023-08-31T05:16:03;6.05;;;3.80;;
48805;SDS011;34625;47.176;27.548;2023-08-31T05:18:29;8.20;;;4.97;;
48805;SDS011;34625;47.176;27.548;2023-08-31T05:20:55;9.95;;;4.95;;
48805;SDS011;34625;47.176;27.548;2023-08-31T05:23:21;6.25;;;4.78;;
48805;SDS011;34625;47.176;27.548;2023-08-31T05:25:47;8.80;;;3.97;;
48805;SDS011;34625;47.176;27.548;2023-08-31T05:28:13;6.20;;;4.80;;
48805;SDS011;34625;47.176;27.548;2023-08-31T05:30:49;6.05;;;4.72;;
48805;SDS011;34625;47.176;27.548;2023-08-31T05:33:16;7.40;;;5.00;;
48805;SDS011;34625;47.176;27.548;2023-08-31T05:35:43;7.25;;;4.38;;
48805;SDS011;34625;47.176;27.548;2023-08-31T05:38:09;6.95;;;4.82;;
48805;SDS011;34625;47.176;27.548;2023-08-31T05:40:35;6.43;;;5.05;;
48805;SDS011;34625;47.176;27.548;2023-08-31T05:43:02;7.53;;;4.50;;
48805;SDS011;34625;47.176;27.548;2023-08-31T05:45:34;6.65;;;3.90;;
48805;SDS011;34625;47.176;27.548;2023-08-31T05:48:00;9.32;;;4.35;;
48805;SDS011;34625;47.176;27.548;2023-08-31T05:50:26;7.63;;;4.53;;
48805;SDS011;34625;47.176;27.548;2023-08-31T05:52:53;5.95;;;3.70;;
48805;SDS011;34625;47.176;27.548;2023-08-31T05:55:21;5.70;;;3.55;;
48805;SDS011;34625;47.176;27.548;2023-08-31T05:57:47;8.30;;;3.38;;
48805;SDS011;34625;47.176;27.548;2023-08-31T06:00:13;5.13;;;3.90;;
48805;SDS011;34625;47.176;27.548;2023-08-31T06:02:59;5.97;;;3.20;;
48805;SDS011;34625;47.176;27.548;2023-08-31T06:05:25;5.55;;;4.15;;
48805;SDS011;34625;47.176;27.548;2023-08-31T06:07:52;4.40;;;3.22;;
48805;SDS011;34625;47.176;27.548;2023-08-31T06:10:18;5.40;;;3.65;;
48805;SDS011;34625;47.176;27.548;2023-08-31T06:12:44;5.85;;;3.80;;
48805;SDS011;34625;47.176;27.548;2023-08-31T06:15:11;9.05;;;4.88;;
48805;SDS011;34625;47.176;27.548;2023-08-31T06:17:37;4.97;;;3.72;;
48805;SDS011;34625;47.176;27.548;2023-08-31T06:20:03;5.80;;;3.95;;
48805;SDS011;34625;47.176;27.548;2023-08-31T06:22:30;5.80;;;3.97;;
48805;SDS011;34625;47.176;27.548;2023-08-31T06:24:56;5.80;;;3.88;;
48805;SDS011;34625;47.176;27.548;2023-08-31T06:27:22;8.32;;;4.25;;
48805;SDS011;34625;47.176;27.548;2023-08-31T06:29:48;6.07;;;4.22;;
48805;SDS011;34625;47.176;27.548;2023-08-31T06:32:15;6.00;;;4.22;;
48805;SDS011;34625;47.176;27.548;2023-08-31T06:34:42;5.85;;;4.38;;
48805;SDS011;34625;47.176;27.548;2023-08-31T06:37:08;6.65;;;3.47;;
48805;SDS011;34625;47.176;27.548;2023-08-31T06:39:34;11.02;;;4.25;;
48805;SDS011;34625;47.176;27.548;2023-08-31T06:42:01;6.10;;;3.70;;
48805;SDS011;34625;47.176;27.548;2023-08-31T06:44:30;3.63;;;3.10;;
48805;SDS011;34625;47.176;27.548;2023-08-31T06:46:56;6.28;;;3.92;;
48805;SDS011;34625;47.176;27.548;2023-08-31T06:49:22;5.40;;;3.65;;
48805;SDS011;34625;47.176;27.548;2023-08-31T06:51:49;5.70;;;3.55;;
48805;SDS011;34625;47.176;27.548;2023-08-31T06:54:15;4.68;;;3.60;;
48805;SDS011;34625;47.176;27.548;2023-08-31T06:56:41;6.43;;;3.45;;
48805;SDS011;34625;47.176;27.548;2023-08-31T06:59:07;4.85;;;3.63;;
48805;SDS011;34625;47.176;27.548;2023-08-31T07:01:33;7.97;;;3.25;;
48805;SDS011;34625;47.176;27.548;2023-08-31T07:03:59;8.25;;;3.55;;
48805;SDS011;34625;47.176;27.548;2023-08-31T07:06:25;4.00;;;3.65;;
48805;SDS011;34625;47.176;27.548;2023-08-31T07:08:51;5.50;;;3.67;;
48805;SDS011;34625;47.176;27.548;2023-08-31T07:11:18;7.05;;;3.90;;
48805;SDS011;34625;47.176;27.548;2023-08-31T07:13:44;3.90;;;3.47;;
48805;SDS011;34625;47.176;27.548;2023-08-31T07:16:10;10.18;;;4.10;;
48805;SDS011;34625;47.176;27.548;2023-08-31T07:18:36;6.22;;;4.00;;
48805;SDS011;34625;47.176;27.548;2023-08-31T07:21:02;7.82;;;4.78;;
48805;SDS011;34625;47.176;27.548;2023-08-31T07:23:30;8.20;;;4.00;;
48805;SDS011;34625;47.176;27.548;2023-08-31T07:25:56;6.18;;;4.60;;
48805;SDS011;34625;47.176;27.548;2023-08-31T07:28:25;5.13;;;3.65;;
48805;SDS011;34625;47.176;27.548;2023-08-31T07:31:02;4.68;;;3.50;;
48805;SDS011;34625;47.176;27.548;2023-08-31T07:33:31;5.45;;;3.28;;
48805;SDS011;34625;47.176;27.548;2023-08-31T07:35:59;5.50;;;4.10;;
48805;SDS011;34625;47.176;27.548;2023-08-31T07:38:26;3.53;;;3.22;;
48805;SDS011;34625;47.176;27.548;2023-08-31T07:40:52;5.20;;;4.00;;
48805;SDS011;34625;47.176;27.548;2023-08-31T07:43:18;4.05;;;3.65;;
48805;SDS011;34625;47.176;27.548;2023-08-31T07:45:44;4.65;;;4.18;;
48805;SDS011;34625;47.176;27.548;2023-08-31T07:48:10;6.25;;;4.10;;
48805;SDS011;34625;47.176;27.548;2023-08-31T07:50:36;5.00;;;3.67;;
48805;SDS011;34625;47.176;27.548;2023-08-31T07:53:03;5.22;;;3.67;;
48805;SDS011;34625;47.176;27.548;2023-08-31T07:55:29;6.28;;;3.83;;
48805;SDS011;34625;47.176;27.548;2023-08-31T07:57:55;4.82;;;4.03;;
48805;SDS011;34625;47.176;27.548;2023-08-31T08:00:21;4.55;;;3.45;;
48805;SDS011;34625;47.176;27.548;2023-08-31T08:02:47;4.38;;;3.83;;
48805;SDS011;34625;47.176;27.548;2023-08-31T08:05:13;3.88;;;3.05;;
48805;SDS011;34625;47.176;27.548;2023-08-31T08:07:39;4.75;;;3.33;;
48805;SDS011;34625;47.176;27.548;2023-08-31T08:10:08;7.28;;;3.38;;
48805;SDS011;34625;47.176;27.548;2023-08-31T08:12:38;4.13;;;3.60;;
48805;SDS011;34625;47.176;27.548;2023-08-31T08:15:05;5.72;;;3.63;;
48805;SDS011;34625;47.176;27.548;2023-08-31T08:17:35;7.28;;;3.40;;
48805;SDS011;34625;47.176;27.548;2023-08-31T08:20:01;4.85;;;3.67;;
48805;SDS011;34625;47.176;27.548;2023-08-31T08:22:29;5.40;;;3.40;;
48805;SDS011;34625;47.176;27.548;2023-08-31T08:24:55;4.32;;;3.40;;
48805;SDS011;34625;47.176;27.548;2023-08-31T08:27:21;3.92;;;3.45;;
48805;SDS011;34625;47.176;27.548;2023-08-31T08:29:47;6.25;;;3.08;;
48805;SDS011;34625;47.176;27.548;2023-08-31T08:32:13;5.45;;;3.40;;
48805;SDS011;34625;47.176;27.548;2023-08-31T08:34:39;3.03;;;2.72;;
48805;SDS011;34625;47.176;27.548;2023-08-31T08:37:05;2.95;;;2.60;;
48805;SDS011;34625;47.176;27.548;2023-08-31T08:39:31;3.63;;;2.80;;
48805;SDS011;34625;47.176;27.548;2023-08-31T08:42:00;85.80;;;18.00;;
48805;SDS011;34625;47.176;27.548;2023-08-31T08:44:31;49.15;;;23.55;;
48805;SDS011;34625;47.176;27.548;2023-08-31T08:46:59;41.42;;;13.23;;
48805;SDS011;34625;47.176;27.548;2023-08-31T08:49:26;14.65;;;6.03;;
48805;SDS011;34625;47.176;27.548;2023-08-31T08:51:53;6.40;;;4.22;;
48805;SDS011;34625;47.176;27.548;2023-08-31T08:54:19;6.40;;;3.53;;
48805;SDS011;34625;47.176;27.548;2023-08-31T08:56:47;6.47;;;3.75;;
48805;SDS011;34625;47.176;27.548;2023-08-31T08:59:13;3.20;;;2.88;;
48805;SDS011;34625;47.176;27.548;2023-08-31T09:01:40;5.75;;;3.03;;
48805;SDS011;34625;47.176;27.548;2023-08-31T09:04:06;6.47;;;3.42;;
48805;SDS011;34625;47.176;27.548;2023-08-31T09:06:34;6.07;;;2.83;;
48805;SDS011;34625;47.176;27.548;2023-08-31T09:09:00;3.47;;;2.63;;
48805;SDS011;34625;47.176;27.548;2023-08-31T09:11:27;3.90;;;2.60;;
48805;SDS011;34625;47.176;27.548;2023-08-31T09:13:53;4.18;;;2.53;;
48805;SDS011;34625;47.176;27.548;2023-08-31T09:16:29;3.60;;;2.58;;
48805;SDS011;34625;47.176;27.548;2023-08-31T09:18:56;3.47;;;2.35;;
48805;SDS011;34625;47.176;27.548;2023-08-31T09:21:22;4.32;;;2.20;;
48805;SDS011;34625;47.176;27.548;2023-08-31T09:24:01;5.70;;;2.95;;
48805;SDS011;34625;47.176;27.548;2023-08-31T09:26:28;3.33;;;2.65;;
48805;SDS011;34625;47.176;27.548;2023-08-31T09:29:00;3.60;;;2.42;;
48805;SDS011;34625;47.176;27.548;2023-08-31T09:31:28;3.55;;;2.35;;
48805;SDS011;34625;47.176;27.548;2023-08-31T09:33:56;2.55;;;2.35;;
48805;SDS011;34625;47.176;27.548;2023-08-31T09:36:22;3.20;;;2.63;;
48805;SDS011;34625;47.176;27.548;2023-08-31T09:38:48;3.95;;;2.42;;
48805;SDS011;34625;47.176;27.548;2023-08-31T09:41:14;7.70;;;4.68;;
48805;SDS011;34625;47.176;27.548;2023-08-31T09:43:40;4.03;;;2.38;;
48805;SDS011;34625;47.176;27.548;2023-08-31T09:46:08;2.92;;;2.58;;
48805;SDS011;34625;47.176;27.548;2023-08-31T09:48:36;3.97;;;2.00;;
48805;SDS011;34625;47.176;27.548;2023-08-31T09:51:04;2.33;;;1.92;;
48805;SDS011;34625;47.176;27.548;2023-08-31T09:53:31;4.43;;;2.40;;
48805;SDS011;34625;47.176;27.548;2023-08-31T09:55:57;3.47;;;2.30;;
48805;SDS011;34625;47.176;27.548;2023-08-31T09:58:23;2.22;;;2.03;;
48805;SDS011;34625;47.176;27.548;2023-08-31T10:00:50;3.80;;;2.90;;
48805;SDS011;34625;47.176;27.548;2023-08-31T10:03:17;4.78;;;3.25;;
48805;SDS011;34625;47.176;27.548;2023-08-31T10:05:46;4.25;;;2.70;;
48805;SDS011;34625;47.176;27.548;2023-08-31T10:08:14;7.55;;;2.58;;
48805;SDS011;34625;47.176;27.548;2023-08-31T10:10:41;4.38;;;2.45;;
48805;SDS011;34625;47.176;27.548;2023-08-31T10:13:07;1.52;;;1.42;;
48805;SDS011;34625;47.176;27.548;2023-08-31T10:15:35;3.30;;;2.35;;
48805;SDS011;34625;47.176;27.548;2023-08-31T10:18:02;3.70;;;2.58;;
48805;SDS011;34625;47.176;27.548;2023-08-31T10:20:29;3.95;;;3.10;;
48805;SDS011;34625;47.176;27.548;2023-08-31T10:23:03;4.18;;;2.95;;
48805;SDS011;34625;47.176;27.548;2023-08-31T10:28:18;8.93;;;4.43;;
48805;SDS011;34625;47.176;27.548;2023-08-31T10:38:41;2.70;;;2.50;;
48805;SDS011;34625;47.176;27.548;2023-08-31T10:46:24;2.20;;;2.00;;
48805;SDS011;34625;47.176;27.548;2023-08-31T10:48:53;3.90;;;2.35;;
48805;SDS011;34625;47.176;27.548;2023-08-31T10:51:27;2.72;;;1.85;;
48805;SDS011;34625;47.176;27.548;2023-08-31T10:59:20;2.80;;;2.55;;
48805;SDS011;34625;47.176;27.548;2023-08-31T11:01:54;2.75;;;2.05;;
48805;SDS011;34625;47.176;27.548;2023-08-31T11:04:22;3.70;;;2.75;;
48805;SDS011;34625;47.176;27.548;2023-08-31T11:07:10;3.33;;;2.08;;
48805;SDS011;34625;47.176;27.548;2023-08-31T11:09:45;2.45;;;1.98;;
48805;SDS011;34625;47.176;27.548;2023-08-31T11:12:12;5.93;;;1.80;;
48805;SDS011;34625;47.176;27.548;2023-08-31T11:14:38;2.17;;;1.98;;
48805;SDS011;34625;47.176;27.548;2023-08-31T11:17:05;2.05;;;1.85;;
48805;SDS011;34625;47.176;27.548;2023-08-31T11:19:32;3.63;;;2.45;;
48805;SDS011;34625;47.176;27.548;2023-08-31T11:22:02;2.28;;;1.80;;
48805;SDS011;34625;47.176;27.548;2023-08-31T11:24:30;2.70;;;1.85;;
48805;SDS011;34625;47.176;27.548;2023-08-31T11:26:56;3.50;;;1.88;;
48805;SDS011;34625;47.176;27.548;2023-08-31T11:29:22;2.85;;;2.53;;
48805;SDS011;34625;47.176;27.548;2023-08-31T11:31:48;1.83;;;1.70;;
48805;SDS011;34625;47.176;27.548;2023-08-31T11:34:15;2.28;;;1.83;;
48805;SDS011;34625;47.176;27.548;2023-08-31T11:36:43;2.38;;;1.65;;
48805;SDS011;34625;47.176;27.548;2023-08-31T11:39:11;2.63;;;2.15;;
48805;SDS011;34625;47.176;27.548;2023-08-31T11:41:38;3.90;;;2.05;;
48805;SDS011;34625;47.176;27.548;2023-08-31T11:44:11;2.55;;;2.17;;
48805;SDS011;34625;47.176;27.548;2023-08-31T11:46:42;2.58;;;2.03;;
48805;SDS011;34625;47.176;27.548;2023-08-31T11:49:10;2.20;;;2.00;;
48805;SDS011;34625;47.176;27.548;2023-08-31T11:51:37;1.95;;;1.80;;
48805;SDS011;34625;47.176;27.548;2023-08-31T11:54:05;2.55;;;2.20;;
48805;SDS011;34625;47.176;27.548;2023-08-31T11:59:17;3.85;;;1.65;;
48805;SDS011;34625;47.176;27.548;2023-08-31T12:01:48;1.83;;;1.73;;
48805;SDS011;34625;47.176;27.548;2023-08-31T12:04:21;3.67;;;1.40;;
48805;SDS011;34625;47.176;27.548;2023-08-31T12:06:51;2.75;;;1.63;;
48805;SDS011;34625;47.176;27.548;2023-08-31T12:09:21;4.88;;;1.70;;
48805;SDS011;34625;47.176;27.548;2023-08-31T12:11:50;3.08;;;2.40;;
48805;SDS011;34625;47.176;27.548;2023-08-31T12:14:26;5.05;;;1.98;;
48805;SDS011;34625;47.176;27.548;2023-08-31T12:16:59;3.40;;;1.90;;
48805;SDS011;34625;47.176;27.548;2023-08-31T12:19:29;2.53;;;1.75;;
48805;SDS011;34625;47.176;27.548;2023-08-31T12:21:56;2.20;;;1.90;;
48805;SDS011;34625;47.176;27.548;2023-08-31T12:24:22;1.73;;;1.63;;
48805;SDS011;34625;47.176;27.548;2023-08-31T12:26:49;3.95;;;2.53;;
48805;SDS011;34625;47.176;27.548;2023-08-31T12:29:16;1.95;;;1.70;;
48805;SDS011;34625;47.176;27.548;2023-08-31T12:31:42;1.88;;;1.52;;
48805;SDS011;34625;47.176;27.548;2023-08-31T12:34:09;2.40;;;1.65;;
48805;SDS011;34625;47.176;27.548;2023-08-31T12:36:35;2.13;;;1.92;;
48805;SDS011;34625;47.176;27.548;2023-08-31T12:39:09;1.38;;;1.27;;
48805;SDS011;34625;47.176;27.548;2023-08-31T12:41:36;3.28;;;1.50;;
48805;SDS011;34625;47.176;27.548;2023-08-31T12:44:02;1.70;;;1.35;;
48805;SDS011;34625;47.176;27.548;2023-08-31T12:46:29;1.63;;;1.52;;
48805;SDS011;34625;47.176;27.548;2023-08-31T12:48:56;3.97;;;1.60;;
48805;SDS011;34625;47.176;27.548;2023-08-31T12:51:22;1.95;;;1.75;;
48805;SDS011;34625;47.176;27.548;2023-08-31T12:53:48;2.70;;;1.90;;
48805;SDS011;34625;47.176;27.548;2023-08-31T12:56:14;2.00;;;1.73;;
48805;SDS011;34625;47.176;27.548;2023-08-31T12:58:50;2.72;;;1.50;;
48805;SDS011;34625;47.176;27.548;2023-08-31T13:01:20;2.00;;;1.48;;
48805;SDS011;34625;47.176;27.548;2023-08-31T13:03:46;4.22;;;1.50;;
48805;SDS011;34625;47.176;27.548;2023-08-31T13:06:13;2.25;;;1.80;;
48805;SDS011;34625;47.176;27.548;2023-08-31T13:08:41;2.25;;;1.50;;
48805;SDS011;34625;47.176;27.548;2023-08-31T13:11:10;4.13;;;1.90;;
48805;SDS011;34625;47.176;27.548;2023-08-31T13:13:37;4.05;;;1.77;;
48805;SDS011;34625;47.176;27.548;2023-08-31T13:16:04;3.25;;;2.13;;
48805;SDS011;34625;47.176;27.548;2023-08-31T13:18:30;1.85;;;1.48;;
48805;SDS011;34625;47.176;27.548;2023-08-31T13:20:56;2.72;;;1.40;;
48805;SDS011;34625;47.176;27.548;2023-08-31T13:23:22;3.03;;;2.00;;
48805;SDS011;34625;47.176;27.548;2023-08-31T13:25:48;2.00;;;1.60;;
48805;SDS011;34625;47.176;27.548;2023-08-31T13:28:16;2.28;;;1.55;;
48805;SDS011;34625;47.176;27.548;2023-08-31T13:30:42;2.08;;;1.65;;
48805;SDS011;34625;47.176;27.548;2023-08-31T13:33:08;2.20;;;1.77;;
48805;SDS011;34625;47.176;27.548;2023-08-31T13:35:34;2.60;;;1.35;;
48805;SDS011;34625;47.176;27.548;2023-08-31T13:38:01;2.47;;;1.90;;
48805;SDS011;34625;47.176;27.548;2023-08-31T13:40:28;1.90;;;1.65;;
48805;SDS011;34625;47.176;27.548;2023-08-31T13:42:55;3.83;;;1.90;;
48805;SDS011;34625;47.176;27.548;2023-08-31T13:45:24;3.75;;;1.85;;
48805;SDS011;34625;47.176;27.548;2023-08-31T13:47:51;4.15;;;1.92;;
48805;SDS011;34625;47.176;27.548;2023-08-31T13:50:17;3.10;;;1.73;;
48805;SDS011;34625;47.176;27.548;2023-08-31T13:52:44;2.72;;;2.45;;
48805;SDS011;34625;47.176;27.548;2023-08-31T13:55:10;2.55;;;1.90;;
48805;SDS011;34625;47.176;27.548;2023-08-31T13:57:37;5.05;;;2.10;;
48805;SDS011;34625;47.176;27.548;2023-08-31T14:00:06;1.35;;;1.17;;
48805;SDS011;34625;47.176;27.548;2023-08-31T14:02:38;2.30;;;1.75;;
48805;SDS011;34625;47.176;27.548;2023-08-31T14:05:04;2.45;;;1.85;;
48805;SDS011;34625;47.176;27.548;2023-08-31T14:07:38;3.70;;;1.95;;
48805;SDS011;34625;47.176;27.548;2023-08-31T14:10:04;3.80;;;2.20;;
48805;SDS011;34625;47.176;27.548;2023-08-31T14:12:32;2.53;;;1.98;;
48805;SDS011;34625;47.176;27.548;2023-08-31T14:14:59;3.78;;;2.00;;
48805;SDS011;34625;47.176;27.548;2023-08-31T14:17:29;4.65;;;2.30;;
48805;SDS011;34625;47.176;27.548;2023-08-31T14:19:55;4.55;;;2.35;;
48805;SDS011;34625;47.176;27.548;2023-08-31T14:22:23;2.70;;;1.95;;
48805;SDS011;34625;47.176;27.548;2023-08-31T14:24:49;4.53;;;2.50;;
48805;SDS011;34625;47.176;27.548;2023-08-31T14:27:15;3.47;;;2.25;;
48805;SDS011;34625;47.176;27.548;2023-08-31T14:29:41;2.75;;;2.10;;
48805;SDS011;34625;47.176;27.548;2023-08-31T14:32:07;3.05;;;2.33;;
48805;SDS011;34625;47.176;27.548;2023-08-31T14:34:34;4.85;;;2.40;;
48805;SDS011;34625;47.176;27.548;2023-08-31T14:37:00;3.75;;;2.05;;
48805;SDS011;34625;47.176;27.548;2023-08-31T14:39:26;3.08;;;2.20;;
48805;SDS011;34625;47.176;27.548;2023-08-31T14:41:55;7.60;;;2.50;;
48805;SDS011;34625;47.176;27.548;2023-08-31T14:44:23;5.47;;;3.03;;
48805;SDS011;34625;47.176;27.548;2023-08-31T14:46:49;5.47;;;3.00;;
48805;SDS011;34625;47.176;27.548;2023-08-31T14:49:15;5.85;;;3.58;;
48805;SDS011;34625;47.176;27.548;2023-08-31T14:51:41;4.50;;;2.78;;
48805;SDS011;34625;47.176;27.548;2023-08-31T14:54:07;3.75;;;2.33;;
48805;SDS011;34625;47.176;27.548;2023-08-31T14:56:33;3.30;;;1.95;;
48805;SDS011;34625;47.176;27.548;2023-08-31T14:58:59;7.18;;;2.90;;
48805;SDS011;34625;47.176;27.548;2023-08-31T15:01:25;29.90;;;16.42;;
48805;SDS011;34625;47.176;27.548;2023-08-31T15:03:52;48.17;;;33.30;;
48805;SDS011;34625;47.176;27.548;2023-08-31T15:06:18;39.38;;;25.95;;
48805;SDS011;34625;47.176;27.548;2023-08-31T15:08:44;8.38;;;5.88;;